sensor_id;sensor_type;location;lat;lon;timestamp;temperature;humidity
21035;DHT22;10676;50.848;3.272;2023-01-26T00:01:07;3.00;99.90
21035;DHT22;10676;50.848;3.272;2023-01-26T00:03:33;3.00;99.90
21035;DHT22;10676;50.848;3.272;2023-01-26T00:06:05;3.00;99.90
21035;DHT22;10676;50.848;3.272;2023-01-26T00:08:38;3.00;99.90
21035;DHT22;10676;50.848;3.272;2023-01-26T00:11:06;3.10;99.90
21035;DHT22;10676;50.848;3.272;2023-01-26T00:13:33;3.10;99.90
21035;DHT22;10676;50.848;3.272;2023-01-26T00:15:59;3.10;99.90
21035;DHT22;10676;50.848;3.272;2023-01-26T00:18:24;3.00;99.90
21035;DHT22;10676;50.848;3.272;2023-01-26T00:20:59;3.00;99.90
21035;DHT22;10676;50.848;3.272;2023-01-26T00:23:26;3.00;99.90
21035;DHT22;10676;50.848;3.272;2023-01-26T00:25:53;3.00;99.90
21035;DHT22;10676;50.848;3.272;2023-01-26T00:28:18;3.00;99.90
21035;DHT22;10676;50.848;3.272;2023-01-26T00:30:44;3.00;99.90
21035;DHT22;10676;50.848;3.272;2023-01-26T00:33:11;3.00;99.90
21035;DHT22;10676;50.848;3.272;2023-01-26T00:35:37;3.00;99.90
21035;DHT22;10676;50.848;3.272;2023-01-26T00:38:04;3.00;99.90
21035;DHT22;10676;50.848;3.272;2023-01-26T00:40:45;3.00;99.90
21035;DHT22;10676;50.848;3.272;2023-01-26T00:43:10;3.00;99.90
21035;DHT22;10676;50.848;3.272;2023-01-26T00:45:36;3.00;99.90
21035;DHT22;10676;50.848;3.272;2023-01-26T00:48:02;3.10;99.90
21035;DHT22;10676;50.848;3.272;2023-01-26T00:50:28;3.10;99.90
21035;DHT22;10676;50.848;3.272;2023-01-26T00:52:53;3.00;99.90
21035;DHT22;10676;50.848;3.272;2023-01-26T00:55:19;3.00;99.90
21035;DHT22;10676;50.848;3.272;2023-01-26T00:57:45;3.10;99.90
21035;DHT22;10676;50.848;3.272;2023-01-26T01:00:11;3.00;99.90
21035;DHT22;10676;50.848;3.272;2023-01-26T01:02:41;3.00;99.90
21035;DHT22;10676;50.848;3.272;2023-01-26T01:05:08;3.00;99.90
21035;DHT22;10676;50.848;3.272;2023-01-26T01:07:33;3.00;99.90
21035;DHT22;10676;50.848;3.272;2023-01-26T01:09:59;3.00;99.90
21035;DHT22;10676;50.848;3.272;2023-01-26T01:12:26;3.00;99.90
21035;DHT22;10676;50.848;3.272;2023-01-26T01:14:51;3.00;99.90
21035;DHT22;10676;50.848;3.272;2023-01-26T01:17:17;3.00;99.90
21035;DHT22;10676;50.848;3.272;2023-01-26T01:19:43;3.00;99.90
21035;DHT22;10676;50.848;3.272;2023-01-26T01:22:08;3.10;99.90
21035;DHT22;10676;50.848;3.272;2023-01-26T01:24:34;3.00;99.90
21035;DHT22;10676;50.848;3.272;2023-01-26T01:27:01;3.10;99.90
21035;DHT22;10676;50.848;3.272;2023-01-26T01:29:27;3.10;99.90
21035;DHT22;10676;50.848;3.272;2023-01-26T01:31:52;3.10;99.90
21035;DHT22;10676;50.848;3.272;2023-01-26T01:34:19;3.10;99.90
21035;DHT22;10676;50.848;3.272;2023-01-26T01:36:45;3.10;99.90
21035;DHT22;10676;50.848;3.272;2023-01-26T01:39:11;3.10;99.90
21035;DHT22;10676;50.848;3.272;2023-01-26T01:41:40;3.10;99.90
21035;DHT22;10676;50.848;3.272;2023-01-26T01:46:46;3.10;99.90
21035;DHT22;10676;50.848;3.272;2023-01-26T01:49:21;3.10;99.90
21035;DHT22;10676;50.848;3.272;2023-01-26T01:52:05;3.10;99.90
21035;DHT22;10676;50.848;3.272;2023-01-26T01:54:49;3.10;99.90
21035;DHT22;10676;50.848;3.272;2023-01-26T01:57:20;3.20;99.90
21035;DHT22;10676;50.848;3.272;2023-01-26T02:00:01;3.10;99.90
21035;DHT22;10676;50.848;3.272;2023-01-26T02:02:27;3.20;99.90
21035;DHT22;10676;50.848;3.272;2023-01-26T02:07:45;3.10;99.90
21035;DHT22;10676;50.848;3.272;2023-01-26T02:10:11;3.10;99.90
21035;DHT22;10676;50.848;3.272;2023-01-26T02:12:44;3.10;99.90
21035;DHT22;10676;50.848;3.272;2023-01-26T02:15:10;3.10;99.90
21035;DHT22;10676;50.848;3.272;2023-01-26T02:17:42;3.10;99.90
21035;DHT22;10676;50.848;3.272;2023-01-26T02:20:15;3.10;99.90
21035;DHT22;10676;50.848;3.272;2023-01-26T02:28:11;3.10;99.90
21035;DHT22;10676;50.848;3.272;2023-01-26T02:30:36;3.10;99.90
21035;DHT22;10676;50.848;3.272;2023-01-26T02:33:02;3.10;99.90
21035;DHT22;10676;50.848;3.272;2023-01-26T02:35:28;3.10;99.90
21035;DHT22;10676;50.848;3.272;2023-01-26T02:37:57;3.10;99.90
21035;DHT22;10676;50.848;3.272;2023-01-26T02:40:36;3.10;99.90
21035;DHT22;10676;50.848;3.272;2023-01-26T02:43:05;3.10;99.90
21035;DHT22;10676;50.848;3.272;2023-01-26T02:45:32;3.20;99.90
21035;DHT22;10676;50.848;3.272;2023-01-26T02:47:58;3.10;99.90
21035;DHT22;10676;50.848;3.272;2023-01-26T02:50:29;3.10;99.90
21035;DHT22;10676;50.848;3.272;2023-01-26T02:52:55;3.20;99.90
21035;DHT22;10676;50.848;3.272;2023-01-26T02:55:21;3.10;99.90
21035;DHT22;10676;50.848;3.272;2023-01-26T02:58:00;3.00;99.90
21035;DHT22;10676;50.848;3.272;2023-01-26T03:00:27;3.00;99.90
21035;DHT22;10676;50.848;3.272;2023-01-26T03:02:56;3.00;99.90
21035;DHT22;10676;50.848;3.272;2023-01-26T03:05:22;3.00;99.90
21035;DHT22;10676;50.848;3.272;2023-01-26T03:07:48;3.00;99.90
21035;DHT22;10676;50.848;3.272;2023-01-26T03:10:14;3.00;99.90
21035;DHT22;10676;50.848;3.272;2023-01-26T03:12:41;3.00;99.90
21035;DHT22;10676;50.848;3.272;2023-01-26T03:15:07;3.00;99.90
21035;DHT22;10676;50.848;3.272;2023-01-26T03:18:00;3.00;99.90
21035;DHT22;10676;50.848;3.272;2023-01-26T03:20:46;3.00;99.90
21035;DHT22;10676;50.848;3.272;2023-01-26T03:23:30;3.00;99.90
21035;DHT22;10676;50.848;3.272;2023-01-26T03:26:27;3.10;99.90
21035;DHT22;10676;50.848;3.272;2023-01-26T03:29:11;3.10;99.90
21035;DHT22;10676;50.848;3.272;2023-01-26T03:31:37;3.10;99.90
21035;DHT22;10676;50.848;3.272;2023-01-26T03:34:03;3.10;99.90
21035;DHT22;10676;50.848;3.272;2023-01-26T03:36:28;3.10;99.90
21035;DHT22;10676;50.848;3.272;2023-01-26T03:38:55;3.10;99.90
21035;DHT22;10676;50.848;3.272;2023-01-26T03:41:20;3.20;99.90
21035;DHT22;10676;50.848;3.272;2023-01-26T03:44:04;3.20;99.90
21035;DHT22;10676;50.848;3.272;2023-01-26T03:46:48;3.20;99.90
21035;DHT22;10676;50.848;3.272;2023-01-26T03:49:32;3.20;99.90
21035;DHT22;10676;50.848;3.272;2023-01-26T03:52:16;3.30;99.90
21035;DHT22;10676;50.848;3.272;2023-01-26T03:55:00;3.30;99.90
21035;DHT22;10676;50.848;3.272;2023-01-26T03:57:46;3.40;99.90
21035;DHT22;10676;50.848;3.272;2023-01-26T04:00:16;3.40;99.90
21035;DHT22;10676;50.848;3.272;2023-01-26T04:02:42;3.40;99.90
21035;DHT22;10676;50.848;3.272;2023-01-26T04:05:26;3.40;99.90
21035;DHT22;10676;50.848;3.272;2023-01-26T04:08:10;3.40;99.90
21035;DHT22;10676;50.848;3.272;2023-01-26T04:10:55;3.30;99.90
21035;DHT22;10676;50.848;3.272;2023-01-26T04:13:22;3.30;99.90
21035;DHT22;10676;50.848;3.272;2023-01-26T04:16:08;3.30;99.90
21035;DHT22;10676;50.848;3.272;2023-01-26T04:18:53;3.30;99.90
21035;DHT22;10676;50.848;3.272;2023-01-26T04:21:37;3.30;99.90
21035;DHT22;10676;50.848;3.272;2023-01-26T04:24:05;3.30;99.90
21035;DHT22;10676;50.848;3.272;2023-01-26T04:26:41;3.30;99.90
21035;DHT22;10676;50.848;3.272;2023-01-26T04:29:09;3.30;99.90
21035;DHT22;10676;50.848;3.272;2023-01-26T04:31:36;3.30;99.90
21035;DHT22;10676;50.848;3.272;2023-01-26T04:34:04;3.30;99.90
21035;DHT22;10676;50.848;3.272;2023-01-26T04:36:29;3.40;99.90
21035;DHT22;10676;50.848;3.272;2023-01-26T04:38:55;3.30;99.90
21035;DHT22;10676;50.848;3.272;2023-01-26T04:41:22;3.40;99.90
21035;DHT22;10676;50.848;3.272;2023-01-26T04:43:48;3.40;99.90
21035;DHT22;10676;50.848;3.272;2023-01-26T04:46:15;3.40;99.90
21035;DHT22;10676;50.848;3.272;2023-01-26T04:48:41;3.40;99.90
21035;DHT22;10676;50.848;3.272;2023-01-26T04:51:15;3.40;99.90
21035;DHT22;10676;50.848;3.272;2023-01-26T04:53:41;3.40;99.90
21035;DHT22;10676;50.848;3.272;2023-01-26T04:56:23;3.40;99.90
21035;DHT22;10676;50.848;3.272;2023-01-26T04:58:50;3.40;99.90
21035;DHT22;10676;50.848;3.272;2023-01-26T05:01:16;3.40;99.90
21035;DHT22;10676;50.848;3.272;2023-01-26T05:03:42;3.40;99.90
21035;DHT22;10676;50.848;3.272;2023-01-26T05:06:08;3.40;99.90
21035;DHT22;10676;50.848;3.272;2023-01-26T05:08:35;3.40;99.90
21035;DHT22;10676;50.848;3.272;2023-01-26T05:11:01;3.40;99.90
21035;DHT22;10676;50.848;3.272;2023-01-26T05:13:27;3.40;99.90
21035;DHT22;10676;50.848;3.272;2023-01-26T05:15:53;3.30;99.90
21035;DHT22;10676;50.848;3.272;2023-01-26T05:18:18;3.40;99.90
21035;DHT22;10676;50.848;3.272;2023-01-26T05:20:44;3.40;99.90
21035;DHT22;10676;50.848;3.272;2023-01-26T05:23:10;3.40;99.90
21035;DHT22;10676;50.848;3.272;2023-01-26T05:25:35;3.30;99.90
21035;DHT22;10676;50.848;3.272;2023-01-26T05:28:01;3.30;99.90
21035;DHT22;10676;50.848;3.272;2023-01-26T05:30:27;3.30;99.90
21035;DHT22;10676;50.848;3.272;2023-01-26T05:32:52;3.30;99.90
21035;DHT22;10676;50.848;3.272;2023-01-26T05:35:18;3.30;99.90
21035;DHT22;10676;50.848;3.272;2023-01-26T05:37:44;3.40;99.90
21035;DHT22;10676;50.848;3.272;2023-01-26T05:40:11;3.40;99.90
21035;DHT22;10676;50.848;3.272;2023-01-26T05:42:37;3.50;99.90
21035;DHT22;10676;50.848;3.272;2023-01-26T05:45:04;3.50;99.90
21035;DHT22;10676;50.848;3.272;2023-01-26T05:47:29;3.50;99.90
21035;DHT22;10676;50.848;3.272;2023-01-26T05:49:55;3.60;99.90
21035;DHT22;10676;50.848;3.272;2023-01-26T05:52:21;3.60;99.90
21035;DHT22;10676;50.848;3.272;2023-01-26T05:54:47;3.60;99.90
21035;DHT22;10676;50.848;3.272;2023-01-26T05:57:13;3.60;99.90
21035;DHT22;10676;50.848;3.272;2023-01-26T05:59:41;3.70;99.90
21035;DHT22;10676;50.848;3.272;2023-01-26T06:02:07;3.70;99.90
21035;DHT22;10676;50.848;3.272;2023-01-26T06:04:34;3.70;99.90
21035;DHT22;10676;50.848;3.272;2023-01-26T06:06:59;3.70;99.90
21035;DHT22;10676;50.848;3.272;2023-01-26T06:09:25;3.80;99.90
21035;DHT22;10676;50.848;3.272;2023-01-26T06:11:51;3.80;99.90
21035;DHT22;10676;50.848;3.272;2023-01-26T06:14:17;3.80;99.90
21035;DHT22;10676;50.848;3.272;2023-01-26T06:16:42;3.80;99.90
21035;DHT22;10676;50.848;3.272;2023-01-26T06:19:09;3.80;99.90
21035;DHT22;10676;50.848;3.272;2023-01-26T06:21:35;3.80;99.90
21035;DHT22;10676;50.848;3.272;2023-01-26T06:24:01;3.80;99.90
21035;DHT22;10676;50.848;3.272;2023-01-26T06:26:26;3.80;99.90
21035;DHT22;10676;50.848;3.272;2023-01-26T06:28:52;3.80;99.90
21035;DHT22;10676;50.848;3.272;2023-01-26T06:31:18;3.80;99.90
21035;DHT22;10676;50.848;3.272;2023-01-26T06:33:45;3.80;99.90
21035;DHT22;10676;50.848;3.272;2023-01-26T06:36:13;3.80;99.90
21035;DHT22;10676;50.848;3.272;2023-01-26T06:38:44;3.80;99.90
21035;DHT22;10676;50.848;3.272;2023-01-26T06:41:10;3.90;99.90
21035;DHT22;10676;50.848;3.272;2023-01-26T06:43:36;3.90;99.90
21035;DHT22;10676;50.848;3.272;2023-01-26T06:46:03;3.90;99.90
21035;DHT22;10676;50.848;3.272;2023-01-26T06:48:31;4.00;99.90
21035;DHT22;10676;50.848;3.272;2023-01-26T06:53:56;4.10;99.90
21035;DHT22;10676;50.848;3.272;2023-01-26T06:56:23;4.20;99.90
21035;DHT22;10676;50.848;3.272;2023-01-26T06:58:49;4.20;99.90
21035;DHT22;10676;50.848;3.272;2023-01-26T07:01:17;4.20;99.90
21035;DHT22;10676;50.848;3.272;2023-01-26T07:03:44;4.20;99.90
21035;DHT22;10676;50.848;3.272;2023-01-26T07:06:09;4.20;99.90
21035;DHT22;10676;50.848;3.272;2023-01-26T07:08:38;4.30;99.90
21035;DHT22;10676;50.848;3.272;2023-01-26T07:11:05;4.30;99.90
21035;DHT22;10676;50.848;3.272;2023-01-26T07:13:31;4.30;99.90
21035;DHT22;10676;50.848;3.272;2023-01-26T07:16:13;4.30;99.90
21035;DHT22;10676;50.848;3.272;2023-01-26T07:18:39;4.30;99.90
21035;DHT22;10676;50.848;3.272;2023-01-26T07:21:09;4.30;99.90
21035;DHT22;10676;50.848;3.272;2023-01-26T07:23:35;4.40;99.90
21035;DHT22;10676;50.848;3.272;2023-01-26T07:26:02;4.40;99.90
21035;DHT22;10676;50.848;3.272;2023-01-26T07:28:27;4.50;99.90
21035;DHT22;10676;50.848;3.272;2023-01-26T07:31:01;4.50;99.90
21035;DHT22;10676;50.848;3.272;2023-01-26T07:33:31;4.60;99.90
21035;DHT22;10676;50.848;3.272;2023-01-26T07:35:58;4.60;99.90
21035;DHT22;10676;50.848;3.272;2023-01-26T07:38:24;4.60;99.90
21035;DHT22;10676;50.848;3.272;2023-01-26T07:40:51;4.60;99.90
21035;DHT22;10676;50.848;3.272;2023-01-26T07:43:17;4.60;99.90
21035;DHT22;10676;50.848;3.272;2023-01-26T07:45:47;4.70;99.90
21035;DHT22;10676;50.848;3.272;2023-01-26T07:48:16;4.80;99.90
21035;DHT22;10676;50.848;3.272;2023-01-26T07:50:41;4.80;99.90
21035;DHT22;10676;50.848;3.272;2023-01-26T07:53:09;4.90;99.90
21035;DHT22;10676;50.848;3.272;2023-01-26T07:55:37;5.00;99.90
21035;DHT22;10676;50.848;3.272;2023-01-26T07:58:03;5.10;99.90
21035;DHT22;10676;50.848;3.272;2023-01-26T08:00:29;5.20;99.90
21035;DHT22;10676;50.848;3.272;2023-01-26T08:02:55;5.30;99.90
21035;DHT22;10676;50.848;3.272;2023-01-26T08:05:20;5.40;99.90
21035;DHT22;10676;50.848;3.272;2023-01-26T08:07:46;5.50;99.90
21035;DHT22;10676;50.848;3.272;2023-01-26T08:10:12;5.60;99.90
21035;DHT22;10676;50.848;3.272;2023-01-26T08:12:39;5.70;99.90
21035;DHT22;10676;50.848;3.272;2023-01-26T08:15:05;5.90;99.90
21035;DHT22;10676;50.848;3.272;2023-01-26T08:17:31;6.00;99.90
21035;DHT22;10676;50.848;3.272;2023-01-26T08:19:58;6.10;99.90
21035;DHT22;10676;50.848;3.272;2023-01-26T08:22:24;6.30;99.90
21035;DHT22;10676;50.848;3.272;2023-01-26T08:24:50;6.30;99.90
21035;DHT22;10676;50.848;3.272;2023-01-26T08:27:15;6.40;99.90
21035;DHT22;10676;50.848;3.272;2023-01-26T08:29:41;6.50;99.90
21035;DHT22;10676;50.848;3.272;2023-01-26T08:32:07;6.60;99.90
21035;DHT22;10676;50.848;3.272;2023-01-26T08:34:33;6.70;99.90
21035;DHT22;10676;50.848;3.272;2023-01-26T08:36:59;6.80;99.90
21035;DHT22;10676;50.848;3.272;2023-01-26T08:39:26;6.90;99.90
21035;DHT22;10676;50.848;3.272;2023-01-26T08:41:52;7.00;99.90
21035;DHT22;10676;50.848;3.272;2023-01-26T08:44:18;7.10;99.90
21035;DHT22;10676;50.848;3.272;2023-01-26T08:46:44;7.10;99.90
21035;DHT22;10676;50.848;3.272;2023-01-26T08:49:09;7.20;99.90
21035;DHT22;10676;50.848;3.272;2023-01-26T08:51:35;7.30;99.90
21035;DHT22;10676;50.848;3.272;2023-01-26T08:54:04;7.30;99.90
21035;DHT22;10676;50.848;3.272;2023-01-26T08:56:29;7.40;99.90
21035;DHT22;10676;50.848;3.272;2023-01-26T08:58:55;7.40;99.90
21035;DHT22;10676;50.848;3.272;2023-01-26T09:01:21;7.50;99.90
21035;DHT22;10676;50.848;3.272;2023-01-26T09:03:46;7.60;99.90
21035;DHT22;10676;50.848;3.272;2023-01-26T09:06:13;7.60;99.90
21035;DHT22;10676;50.848;3.272;2023-01-26T09:08:42;7.60;99.90
21035;DHT22;10676;50.848;3.272;2023-01-26T09:11:08;7.70;99.90
21035;DHT22;10676;50.848;3.272;2023-01-26T09:13:34;7.70;99.90
21035;DHT22;10676;50.848;3.272;2023-01-26T09:16:10;7.70;99.90
21035;DHT22;10676;50.848;3.272;2023-01-26T09:18:36;7.70;99.90
21035;DHT22;10676;50.848;3.272;2023-01-26T09:21:07;7.70;99.90
21035;DHT22;10676;50.848;3.272;2023-01-26T09:23:33;7.80;99.90
21035;DHT22;10676;50.848;3.272;2023-01-26T09:25:59;7.80;99.90
21035;DHT22;10676;50.848;3.272;2023-01-26T09:28:25;7.90;99.90
21035;DHT22;10676;50.848;3.272;2023-01-26T09:30:51;8.00;99.90
21035;DHT22;10676;50.848;3.272;2023-01-26T09:33:17;8.00;99.90
21035;DHT22;10676;50.848;3.272;2023-01-26T09:35:43;8.10;99.90
21035;DHT22;10676;50.848;3.272;2023-01-26T09:38:08;8.10;99.90
21035;DHT22;10676;50.848;3.272;2023-01-26T09:40:44;8.10;99.90
21035;DHT22;10676;50.848;3.272;2023-01-26T09:49:08;8.20;99.90
21035;DHT22;10676;50.848;3.272;2023-01-26T09:51:43;8.30;99.90
21035;DHT22;10676;50.848;3.272;2023-01-26T09:56:46;8.50;99.90
21035;DHT22;10676;50.848;3.272;2023-01-26T09:59:37;8.60;99.90
21035;DHT22;10676;50.848;3.272;2023-01-26T10:02:22;8.80;99.90
21035;DHT22;10676;50.848;3.272;2023-01-26T10:04:54;9.10;99.90
21035;DHT22;10676;50.848;3.272;2023-01-26T10:07:20;9.30;99.90
21035;DHT22;10676;50.848;3.272;2023-01-26T10:09:48;9.40;99.90
21035;DHT22;10676;50.848;3.272;2023-01-26T10:12:24;9.60;99.90
21035;DHT22;10676;50.848;3.272;2023-01-26T10:17:41;9.70;99.90
21035;DHT22;10676;50.848;3.272;2023-01-26T10:20:14;9.60;99.90
21035;DHT22;10676;50.848;3.272;2023-01-26T10:22:47;9.50;99.90
21035;DHT22;10676;50.848;3.272;2023-01-26T10:25:18;9.30;99.90
21035;DHT22;10676;50.848;3.272;2023-01-26T10:27:44;9.20;99.90
21035;DHT22;10676;50.848;3.272;2023-01-26T10:30:15;9.10;99.90
21035;DHT22;10676;50.848;3.272;2023-01-26T10:32:42;9.10;99.90
21035;DHT22;10676;50.848;3.272;2023-01-26T10:35:23;9.20;99.90
21035;DHT22;10676;50.848;3.272;2023-01-26T10:37:50;9.20;99.90
21035;DHT22;10676;50.848;3.272;2023-01-26T10:40:20;9.30;99.90
21035;DHT22;10676;50.848;3.272;2023-01-26T10:42:57;9.30;99.90
21035;DHT22;10676;50.848;3.272;2023-01-26T10:45:31;9.40;99.90
21035;DHT22;10676;50.848;3.272;2023-01-26T10:48:13;9.40;99.90
21035;DHT22;10676;50.848;3.272;2023-01-26T10:50:40;9.50;99.90
21035;DHT22;10676;50.848;3.272;2023-01-26T10:53:22;9.50;99.90
21035;DHT22;10676;50.848;3.272;2023-01-26T10:56:12;9.50;99.90
21035;DHT22;10676;50.848;3.272;2023-01-26T10:58:59;9.50;99.90
21035;DHT22;10676;50.848;3.272;2023-01-26T11:01:27;9.60;99.90
21035;DHT22;10676;50.848;3.272;2023-01-26T11:04:06;9.50;99.90
21035;DHT22;10676;50.848;3.272;2023-01-26T11:06:36;9.50;99.90
21035;DHT22;10676;50.848;3.272;2023-01-26T11:11:34;9.50;99.90
21035;DHT22;10676;50.848;3.272;2023-01-26T11:14:11;9.50;99.90
21035;DHT22;10676;50.848;3.272;2023-01-26T11:16:47;9.50;99.90
21035;DHT22;10676;50.848;3.272;2023-01-26T11:22:36;9.60;99.90
21035;DHT22;10676;50.848;3.272;2023-01-26T11:25:26;9.60;99.90
21035;DHT22;10676;50.848;3.272;2023-01-26T11:30:54;9.80;99.90
21035;DHT22;10676;50.848;3.272;2023-01-26T11:39:41;10.20;99.90
21035;DHT22;10676;50.848;3.272;2023-01-26T11:45:44;10.40;99.90
21035;DHT22;10676;50.848;3.272;2023-01-26T11:57:25;10.90;99.90
21035;DHT22;10676;50.848;3.272;2023-01-26T11:59:57;11.10;99.90
21035;DHT22;10676;50.848;3.272;2023-01-26T12:02:33;11.10;99.90
21035;DHT22;10676;50.848;3.272;2023-01-26T12:05:10;11.10;99.90
21035;DHT22;10676;50.848;3.272;2023-01-26T12:07:58;11.10;99.90
21035;DHT22;10676;50.848;3.272;2023-01-26T12:13:43;11.50;99.90
21035;DHT22;10676;50.848;3.272;2023-01-26T12:16:17;11.60;99.90
21035;DHT22;10676;50.848;3.272;2023-01-26T12:18:56;11.70;99.90
21035;DHT22;10676;50.848;3.272;2023-01-26T12:21:25;11.60;99.90
21035;DHT22;10676;50.848;3.272;2023-01-26T12:24:00;11.50;99.90
21035;DHT22;10676;50.848;3.272;2023-01-26T12:26:36;11.50;99.90
21035;DHT22;10676;50.848;3.272;2023-01-26T12:29:12;11.50;99.90
21035;DHT22;10676;50.848;3.272;2023-01-26T12:34:09;11.50;99.90
21035;DHT22;10676;50.848;3.272;2023-01-26T12:42:13;11.20;99.90
21035;DHT22;10676;50.848;3.272;2023-01-26T12:44:45;11.30;99.90
21035;DHT22;10676;50.848;3.272;2023-01-26T12:47:46;11.30;99.90
21035;DHT22;10676;50.848;3.272;2023-01-26T12:58:26;11.30;99.90
21035;DHT22;10676;50.848;3.272;2023-01-26T13:01:20;11.50;99.90
21035;DHT22;10676;50.848;3.272;2023-01-26T13:03:56;11.70;99.90
21035;DHT22;10676;50.848;3.272;2023-01-26T13:06:24;12.00;99.90
21035;DHT22;10676;50.848;3.272;2023-01-26T13:11:49;12.40;99.90
21035;DHT22;10676;50.848;3.272;2023-01-26T13:14:34;12.60;99.90
21035;DHT22;10676;50.848;3.272;2023-01-26T13:27:27;12.50;99.90
21035;DHT22;10676;50.848;3.272;2023-01-26T13:29:53;12.50;99.90
21035;DHT22;10676;50.848;3.272;2023-01-26T13:34:51;12.50;99.90
21035;DHT22;10676;50.848;3.272;2023-01-26T13:37:48;12.40;99.90
21035;DHT22;10676;50.848;3.272;2023-01-26T13:40:28;12.30;99.90
21035;DHT22;10676;50.848;3.272;2023-01-26T13:43:15;12.30;99.90
21035;DHT22;10676;50.848;3.272;2023-01-26T13:46:01;12.10;99.90
21035;DHT22;10676;50.848;3.272;2023-01-26T13:48:47;12.00;99.90
21035;DHT22;10676;50.848;3.272;2023-01-26T13:51:27;11.90;99.90
21035;DHT22;10676;50.848;3.272;2023-01-26T13:54:06;11.80;99.90
21035;DHT22;10676;50.848;3.272;2023-01-26T13:56:37;11.70;99.90
21035;DHT22;10676;50.848;3.272;2023-01-26T14:01:32;11.50;99.90
21035;DHT22;10676;50.848;3.272;2023-01-26T14:04:06;11.50;99.90
21035;DHT22;10676;50.848;3.272;2023-01-26T14:06:33;11.50;99.90
21035;DHT22;10676;50.848;3.272;2023-01-26T14:09:02;11.60;99.90
21035;DHT22;10676;50.848;3.272;2023-01-26T14:11:31;11.80;99.90
21035;DHT22;10676;50.848;3.272;2023-01-26T14:13:59;11.80;99.90
21035;DHT22;10676;50.848;3.272;2023-01-26T14:16:32;11.70;99.90
21035;DHT22;10676;50.848;3.272;2023-01-26T14:19:14;11.60;99.90
21035;DHT22;10676;50.848;3.272;2023-01-26T14:21:59;11.50;99.90
21035;DHT22;10676;50.848;3.272;2023-01-26T14:24:36;11.40;99.90
21035;DHT22;10676;50.848;3.272;2023-01-26T14:27:19;11.40;99.90
21035;DHT22;10676;50.848;3.272;2023-01-26T14:29:47;11.40;99.90
21035;DHT22;10676;50.848;3.272;2023-01-26T14:32:14;11.50;99.90
21035;DHT22;10676;50.848;3.272;2023-01-26T14:34:54;11.60;99.90
21035;DHT22;10676;50.848;3.272;2023-01-26T14:37:20;11.60;99.90
21035;DHT22;10676;50.848;3.272;2023-01-26T14:39:45;11.50;99.90
21035;DHT22;10676;50.848;3.272;2023-01-26T14:42:17;11.50;99.90
21035;DHT22;10676;50.848;3.272;2023-01-26T14:44:44;11.40;99.90
21035;DHT22;10676;50.848;3.272;2023-01-26T14:47:24;11.40;99.90
21035;DHT22;10676;50.848;3.272;2023-01-26T14:50:01;11.40;99.90
21035;DHT22;10676;50.848;3.272;2023-01-26T14:52:45;11.40;99.90
21035;DHT22;10676;50.848;3.272;2023-01-26T14:55:32;11.30;99.90
21035;DHT22;10676;50.848;3.272;2023-01-26T14:58:00;11.10;99.90
21035;DHT22;10676;50.848;3.272;2023-01-26T15:00:32;10.90;99.90
21035;DHT22;10676;50.848;3.272;2023-01-26T15:03:03;10.60;99.90
21035;DHT22;10676;50.848;3.272;2023-01-26T15:05:35;10.50;99.90
21035;DHT22;10676;50.848;3.272;2023-01-26T15:08:21;10.30;99.90
21035;DHT22;10676;50.848;3.272;2023-01-26T15:10:58;10.20;99.90
21035;DHT22;10676;50.848;3.272;2023-01-26T15:13:46;10.20;99.90
21035;DHT22;10676;50.848;3.272;2023-01-26T15:16:17;10.10;99.90
21035;DHT22;10676;50.848;3.272;2023-01-26T15:18:44;10.10;99.90
21035;DHT22;10676;50.848;3.272;2023-01-26T15:21:19;10.00;99.90
21035;DHT22;10676;50.848;3.272;2023-01-26T15:23:51;10.00;99.90
21035;DHT22;10676;50.848;3.272;2023-01-26T15:26:28;9.90;99.90
21035;DHT22;10676;50.848;3.272;2023-01-26T15:28:57;9.90;99.90
21035;DHT22;10676;50.848;3.272;2023-01-26T15:31:40;9.90;99.90
21035;DHT22;10676;50.848;3.272;2023-01-26T15:34:33;9.80;99.90
21035;DHT22;10676;50.848;3.272;2023-01-26T15:37:00;9.80;99.90
21035;DHT22;10676;50.848;3.272;2023-01-26T15:39:26;9.80;99.90
21035;DHT22;10676;50.848;3.272;2023-01-26T15:42:14;9.80;99.90
21035;DHT22;10676;50.848;3.272;2023-01-26T15:44:45;9.70;99.90
21035;DHT22;10676;50.848;3.272;2023-01-26T15:47:11;9.70;99.90
21035;DHT22;10676;50.848;3.272;2023-01-26T15:49:38;9.70;99.90
21035;DHT22;10676;50.848;3.272;2023-01-26T15:52:30;9.70;99.90
21035;DHT22;10676;50.848;3.272;2023-01-26T15:54:56;9.60;99.90
21035;DHT22;10676;50.848;3.272;2023-01-26T15:57:22;9.60;99.90
21035;DHT22;10676;50.848;3.272;2023-01-26T15:59:47;9.50;99.90
21035;DHT22;10676;50.848;3.272;2023-01-26T16:02:15;9.50;99.90
21035;DHT22;10676;50.848;3.272;2023-01-26T16:04:42;9.50;99.90
21035;DHT22;10676;50.848;3.272;2023-01-26T16:07:12;9.50;99.90
21035;DHT22;10676;50.848;3.272;2023-01-26T16:09:38;9.40;99.90
21035;DHT22;10676;50.848;3.272;2023-01-26T16:12:04;9.40;99.90
21035;DHT22;10676;50.848;3.272;2023-01-26T16:14:30;9.30;99.90
21035;DHT22;10676;50.848;3.272;2023-01-26T16:16:58;9.20;99.90
21035;DHT22;10676;50.848;3.272;2023-01-26T16:19:23;9.20;99.90
21035;DHT22;10676;50.848;3.272;2023-01-26T16:21:50;9.20;99.90
21035;DHT22;10676;50.848;3.272;2023-01-26T16:24:16;9.10;99.90
21035;DHT22;10676;50.848;3.272;2023-01-26T16:26:42;9.00;99.90
21035;DHT22;10676;50.848;3.272;2023-01-26T16:29:07;9.00;99.90
21035;DHT22;10676;50.848;3.272;2023-01-26T16:31:33;8.90;99.90
21035;DHT22;10676;50.848;3.272;2023-01-26T16:34:01;8.80;99.90
21035;DHT22;10676;50.848;3.272;2023-01-26T16:36:27;8.70;99.90
21035;DHT22;10676;50.848;3.272;2023-01-26T16:38:53;8.60;99.90
21035;DHT22;10676;50.848;3.272;2023-01-26T16:41:24;8.60;99.90
21035;DHT22;10676;50.848;3.272;2023-01-26T16:43:53;8.60;99.90
21035;DHT22;10676;50.848;3.272;2023-01-26T16:46:19;8.60;99.90
21035;DHT22;10676;50.848;3.272;2023-01-26T16:48:45;8.50;99.90
21035;DHT22;10676;50.848;3.272;2023-01-26T16:51:17;8.60;99.90
21035;DHT22;10676;50.848;3.272;2023-01-26T16:53:44;8.60;99.90
21035;DHT22;10676;50.848;3.272;2023-01-26T16:56:11;8.50;99.90
21035;DHT22;10676;50.848;3.272;2023-01-26T16:58:37;8.50;99.90
21035;DHT22;10676;50.848;3.272;2023-01-26T17:01:03;8.50;99.90
21035;DHT22;10676;50.848;3.272;2023-01-26T17:03:29;8.50;99.90
21035;DHT22;10676;50.848;3.272;2023-01-26T17:05:55;8.40;99.90
21035;DHT22;10676;50.848;3.272;2023-01-26T17:08:21;8.40;99.90
21035;DHT22;10676;50.848;3.272;2023-01-26T17:10:47;8.30;99.90
21035;DHT22;10676;50.848;3.272;2023-01-26T17:13:15;8.30;99.90
21035;DHT22;10676;50.848;3.272;2023-01-26T17:15:42;8.30;99.90
21035;DHT22;10676;50.848;3.272;2023-01-26T17:18:11;8.30;99.90
21035;DHT22;10676;50.848;3.272;2023-01-26T17:20:38;8.30;99.90
21035;DHT22;10676;50.848;3.272;2023-01-26T17:23:04;8.30;99.90
21035;DHT22;10676;50.848;3.272;2023-01-26T17:25:30;8.40;99.90
21035;DHT22;10676;50.848;3.272;2023-01-26T17:27:56;8.30;99.90
21035;DHT22;10676;50.848;3.272;2023-01-26T17:30:22;8.30;99.90
21035;DHT22;10676;50.848;3.272;2023-01-26T17:32:47;8.30;99.90